createdAt,value
2023-05-05T00:02:29.044Z,17.77
2023-05-05T00:04:57.060Z,17.71
2023-05-05T00:07:25.107Z,17.66
2023-05-05T00:09:57.328Z,17.66
2023-05-05T00:12:25.366Z,17.60
2023-05-05T00:14:53.309Z,17.56
2023-05-05T00:17:21.539Z,17.57
2023-05-05T00:19:51.221Z,17.51
2023-05-05T00:22:19.200Z,17.47
2023-05-05T00:24:47.200Z,17.46
2023-05-05T00:27:15.234Z,17.40
2023-05-05T00:29:43.357Z,17.37
2023-05-05T00:32:11.465Z,17.35
2023-05-05T00:34:39.514Z,17.30
2023-05-05T00:37:08.803Z,17.30
2023-05-05T00:39:36.915Z,17.30
2023-05-05T00:42:05.004Z,17.23
2023-05-05T00:44:40.243Z,17.19
2023-05-05T00:47:10.075Z,17.13
2023-05-05T00:49:39.131Z,17.11
2023-05-05T00:52:09.400Z,17.05
2023-05-05T00:54:38.799Z,16.96
2023-05-05T00:57:07.761Z,16.94
2023-05-05T00:59:36.507Z,16.94
2023-05-05T01:02:04.716Z,16.94
2023-05-05T01:04:32.735Z,16.90
2023-05-05T01:07:14.608Z,16.93
2023-05-05T01:10:15.279Z,16.87
2023-05-05T01:12:59.069Z,16.84
2023-05-05T01:15:35.081Z,16.82
2023-05-05T01:18:12.801Z,16.77
2023-05-05T01:20:50.590Z,16.74
2023-05-05T01:23:43.254Z,16.75
2023-05-05T01:26:46.523Z,16.65
2023-05-05T01:29:39.372Z,16.66
2023-05-05T01:32:12.704Z,16.66
2023-05-05T01:34:46.128Z,16.64
2023-05-05T01:37:21.764Z,16.64
2023-05-05T01:39:55.367Z,16.66
2023-05-05T01:42:28.525Z,16.72
2023-05-05T01:44:58.776Z,16.68
2023-05-05T01:47:30.183Z,16.68
2023-05-05T01:49:59.100Z,16.61
2023-05-05T01:52:28.942Z,16.60
2023-05-05T01:54:58.446Z,16.59
2023-05-05T01:57:27.518Z,16.63
2023-05-05T01:59:56.751Z,16.61
2023-05-05T02:02:29.888Z,16.62
2023-05-05T02:05:00.010Z,16.52
2023-05-05T02:07:31.598Z,16.52
2023-05-05T02:10:00.816Z,16.48
2023-05-05T02:12:30.940Z,16.46
2023-05-05T02:15:02.344Z,16.43
2023-05-05T02:17:32.517Z,16.37
2023-05-05T02:20:02.935Z,16.37
2023-05-05T02:22:31.643Z,16.40
2023-05-05T02:25:00.054Z,16.38
2023-05-05T02:27:29.220Z,16.37
2023-05-05T02:30:03.026Z,16.37
2023-05-05T02:32:37.324Z,16.32
2023-05-05T02:35:11.970Z,16.27
2023-05-05T02:37:49.193Z,16.23
2023-05-05T02:40:23.108Z,16.20
2023-05-05T02:42:55.212Z,16.18
2023-05-05T02:45:28.934Z,16.21
2023-05-05T02:47:58.373Z,16.18
2023-05-05T02:50:26.837Z,16.19
2023-05-05T02:53:03.719Z,16.16
2023-05-05T02:55:42.176Z,16.19
2023-05-05T02:58:25.279Z,16.22
2023-05-05T03:01:03.654Z,16.18
2023-05-05T03:03:41.812Z,16.19
2023-05-05T03:06:18.339Z,16.17
2023-05-05T03:08:57.091Z,16.09
2023-05-05T03:11:33.771Z,16.05
2023-05-05T03:14:11.038Z,16.10
2023-05-05T03:16:42.832Z,16.11
2023-05-05T03:19:15.388Z,16.15
2023-05-05T03:21:44.337Z,16.15
2023-05-05T03:24:16.477Z,16.23
2023-05-05T03:26:50.429Z,16.21
2023-05-05T03:29:22.221Z,16.21
2023-05-05T03:31:50.631Z,16.26
2023-05-05T03:34:20.948Z,16.31
2023-05-05T03:36:50.001Z,16.35
2023-05-05T03:39:18.768Z,16.36
2023-05-05T03:41:47.348Z,16.43
2023-05-05T03:44:16.534Z,16.46
2023-05-05T03:46:44.604Z,16.45
2023-05-05T03:49:15.063Z,16.44
2023-05-05T03:51:45.749Z,16.42
2023-05-05T03:54:13.886Z,16.39
2023-05-05T03:56:42.478Z,16.44
2023-05-05T03:59:10.499Z,16.48
2023-05-05T04:01:38.545Z,16.45
2023-05-05T04:04:06.791Z,16.44
2023-05-05T04:06:34.789Z,16.49
2023-05-05T04:09:05.649Z,16.55
2023-05-05T04:11:33.972Z,16.51
2023-05-05T04:14:02.292Z,16.45
2023-05-05T04:16:31.947Z,16.48
2023-05-05T04:19:00.643Z,16.51
2023-05-05T04:21:28.949Z,16.48
2023-05-05T04:23:57.725Z,16.52
2023-05-05T04:26:27.713Z,16.54
2023-05-05T04:28:56.968Z,16.50
2023-05-05T04:31:25.226Z,16.50
2023-05-05T04:33:53.338Z,16.52
2023-05-05T04:36:21.380Z,16.51
2023-05-05T04:38:49.421Z,16.58
2023-05-05T04:41:17.553Z,16.64
2023-05-05T04:43:47.751Z,16.71
2023-05-05T04:46:16.777Z,16.74
2023-05-05T04:48:44.968Z,16.78
2023-05-05T04:51:14.322Z,16.82
2023-05-05T04:53:42.460Z,16.84
2023-05-05T04:56:10.463Z,16.88
2023-05-05T04:58:38.585Z,16.92
2023-05-05T05:01:08.846Z,16.94
2023-05-05T05:03:37.780Z,16.97
2023-05-05T05:06:06.123Z,17.00
2023-05-05T05:08:34.186Z,17.06
2023-05-05T05:11:02.290Z,17.05
2023-05-05T05:13:30.790Z,17.05
2023-05-05T05:15:58.851Z,17.06
2023-05-05T05:18:28.428Z,17.07
2023-05-05T05:20:56.678Z,17.10
2023-05-05T05:23:25.073Z,17.13
2023-05-05T05:25:53.531Z,17.18
2023-05-05T05:28:22.901Z,17.21
2023-05-05T05:30:55.488Z,17.22
2023-05-05T05:33:23.560Z,17.29
2023-05-05T05:35:54.300Z,17.34
2023-05-05T05:38:23.149Z,17.37
2023-05-05T05:40:55.161Z,17.48
2023-05-05T05:43:24.373Z,17.57
2023-05-05T05:45:52.581Z,17.62
2023-05-05T05:48:24.747Z,17.65
2023-05-05T05:50:54.873Z,17.73
2023-05-05T05:53:23.006Z,17.81
2023-05-05T05:55:52.012Z,17.85
2023-05-05T05:58:20.813Z,17.91
2023-05-05T06:00:49.842Z,17.97
2023-05-05T06:03:18.215Z,17.99
2023-05-05T06:05:46.934Z,18.06
2023-05-05T06:08:17.150Z,18.11
2023-05-05T06:10:50.232Z,18.15
2023-05-05T06:13:21.359Z,18.19
2023-05-05T06:15:51.793Z,18.25
2023-05-05T06:18:20.347Z,18.28
2023-05-05T06:20:51.620Z,18.33
2023-05-05T06:23:22.992Z,18.35
2023-05-05T06:25:55.981Z,18.39
2023-05-05T06:28:24.043Z,18.41
2023-05-05T06:30:52.945Z,18.44
2023-05-05T06:33:20.973Z,18.48
2023-05-05T06:35:49.474Z,18.52
2023-05-05T06:38:17.529Z,18.56
2023-05-05T06:40:49.725Z,18.62
2023-05-05T06:43:19.253Z,18.64
2023-05-05T06:45:54.120Z,18.67
2023-05-05T06:48:22.467Z,18.71
2023-05-05T06:50:50.501Z,18.74
2023-05-05T06:53:18.497Z,18.79
2023-05-05T06:55:49.063Z,18.82
2023-05-05T06:58:17.074Z,18.81
2023-05-05T07:00:45.164Z,18.87
2023-05-05T07:03:13.312Z,18.91
2023-05-05T07:05:41.901Z,18.94
2023-05-05T07:08:11.349Z,18.98
2023-05-05T07:10:39.584Z,18.98
2023-05-05T07:13:09.286Z,19.01
2023-05-05T07:15:37.632Z,19.02
2023-05-05T07:18:06.328Z,19.06
2023-05-05T07:20:34.598Z,19.06
2023-05-05T07:23:02.602Z,19.07
2023-05-05T07:25:30.639Z,19.07
2023-05-05T07:27:59.101Z,19.06
2023-05-05T07:30:28.639Z,19.08
2023-05-05T07:32:56.921Z,19.08
2023-05-05T07:35:25.155Z,19.09
2023-05-05T07:37:53.492Z,19.10
2023-05-05T07:40:21.718Z,19.11
2023-05-05T07:42:49.716Z,19.13
2023-05-05T07:45:17.879Z,19.12
2023-05-05T07:47:47.374Z,19.15
2023-05-05T07:50:16.134Z,19.14
2023-05-05T07:52:49.966Z,19.14
2023-05-05T07:55:24.442Z,19.15
2023-05-05T07:57:52.546Z,19.16
2023-05-05T08:00:21.698Z,19.16
2023-05-05T08:02:51.210Z,19.17
2023-05-05T08:05:19.588Z,19.15
2023-05-05T08:07:47.734Z,19.14
2023-05-05T08:10:15.877Z,19.13
2023-05-05T08:12:43.979Z,19.13
2023-05-05T08:15:12.876Z,19.15
2023-05-05T08:17:48.997Z,19.15
2023-05-05T08:20:19.953Z,19.14
2023-05-05T08:22:48.866Z,19.14
2023-05-05T08:25:16.897Z,19.12
2023-05-05T08:27:46.284Z,19.13
2023-05-05T08:30:17.111Z,19.12
2023-05-05T08:32:45.267Z,19.10
2023-05-05T08:35:13.641Z,19.11
2023-05-05T08:37:43.275Z,19.11
2023-05-05T08:40:14.955Z,19.11
2023-05-05T08:42:44.501Z,19.10
2023-05-05T08:45:12.976Z,19.11
2023-05-05T08:47:43.063Z,19.14
2023-05-05T08:50:13.360Z,19.13
2023-05-05T08:52:45.891Z,19.13
2023-05-05T08:55:21.306Z,19.15
2023-05-05T08:57:54.413Z,19.16
2023-05-05T09:00:23.741Z,19.14
2023-05-05T09:02:52.298Z,19.16
2023-05-05T09:05:20.574Z,19.17
2023-05-05T09:07:51.004Z,19.20
2023-05-05T09:10:21.812Z,19.21
2023-05-05T09:12:51.410Z,19.23
2023-05-05T09:15:19.636Z,19.24
2023-05-05T09:17:48.505Z,19.29
2023-05-05T09:20:19.906Z,19.36
2023-05-05T09:22:49.443Z,19.40
2023-05-05T09:25:19.465Z,19.43
2023-05-05T09:27:49.770Z,19.46
2023-05-05T09:30:24.386Z,19.50
2023-05-05T09:32:54.136Z,19.53
2023-05-05T09:35:23.712Z,19.62
2023-05-05T09:37:53.465Z,19.68
2023-05-05T09:43:52.817Z,19.74
2023-05-05T09:46:20.962Z,19.77
2023-05-05T09:48:49.152Z,19.82
2023-05-05T09:51:17.407Z,19.83
2023-05-05T09:53:46.786Z,19.85
2023-05-05T09:56:14.831Z,19.84
2023-05-05T09:58:43.037Z,19.84
2023-05-05T10:01:24.184Z,19.82
2023-05-05T10:03:53.068Z,19.83
2023-05-05T10:06:21.944Z,19.85
2023-05-05T10:09:02.460Z,19.87
2023-05-05T10:11:31.293Z,19.86
2023-05-05T10:13:59.703Z,19.87
2023-05-05T10:16:31.011Z,19.86
2023-05-05T10:19:02.390Z,19.87
2023-05-05T10:21:41.848Z,19.87
2023-05-05T10:24:18.672Z,19.90
2023-05-05T10:26:48.372Z,19.91
2023-05-05T10:29:28.649Z,19.93
2023-05-05T10:32:18.922Z,19.93
2023-05-05T10:34:58.530Z,19.92
2023-05-05T10:37:28.240Z,19.91
2023-05-05T10:39:58.393Z,19.93
2023-05-05T10:42:27.699Z,19.92
2023-05-05T10:44:55.940Z,19.92
2023-05-05T10:47:24.908Z,19.95
2023-05-05T10:50:00.796Z,19.98
2023-05-05T10:52:39.818Z,20.01
2023-05-05T10:55:16.570Z,20.06
2023-05-05T10:57:46.941Z,20.11
2023-05-05T11:00:57.013Z,20.13
2023-05-05T11:03:25.266Z,20.20
2023-05-05T11:06:16.359Z,20.25
2023-05-05T11:08:45.611Z,20.34
2023-05-05T11:11:15.098Z,20.36
2023-05-05T11:13:43.194Z,20.45
2023-05-05T11:16:48.004Z,20.52
2023-05-05T11:19:48.153Z,20.52
2023-05-05T11:22:17.419Z,20.59
2023-05-05T11:24:45.724Z,20.77
2023-05-05T11:27:15.106Z,20.91
2023-05-05T11:30:12.106Z,20.99
2023-05-05T11:32:40.530Z,21.09
2023-05-05T11:35:09.429Z,21.17
2023-05-05T11:37:39.309Z,21.18
2023-05-05T11:40:22.361Z,21.19
2023-05-05T11:43:04.809Z,21.19
2023-05-05T11:45:33.255Z,21.27
2023-05-05T11:48:25.397Z,21.38
2023-05-05T11:50:54.476Z,21.49
2023-05-05T11:53:22.515Z,21.53
2023-05-05T11:55:50.561Z,21.52
2023-05-05T11:58:22.924Z,21.56
2023-05-05T12:00:51.400Z,21.55
2023-05-05T12:03:19.515Z,21.61
2023-05-05T12:05:48.823Z,21.65
2023-05-05T12:08:16.934Z,21.67
2023-05-05T12:10:44.988Z,21.62
2023-05-05T12:13:20.559Z,21.61
2023-05-05T12:15:50.178Z,21.60
2023-05-05T12:18:21.379Z,21.54
2023-05-05T12:20:49.653Z,21.54
2023-05-05T12:23:17.749Z,21.55
2023-05-05T12:25:46.585Z,21.67
2023-05-05T12:28:14.643Z,21.71
2023-05-05T12:30:42.713Z,21.71
2023-05-05T12:33:12.154Z,21.69
2023-05-05T12:35:41.419Z,21.74
2023-05-05T12:38:09.786Z,21.71
2023-05-05T12:40:45.699Z,21.71
2023-05-05T12:43:31.982Z,21.65
2023-05-05T12:46:08.796Z,21.67
2023-05-05T12:48:40.197Z,21.72
2023-05-05T12:51:20.786Z,21.77
2023-05-05T12:53:50.555Z,21.73
2023-05-05T12:56:40.694Z,21.72
2023-05-05T12:59:10.381Z,21.77
2023-05-05T13:01:51.166Z,21.82
2023-05-05T13:04:22.047Z,21.90
2023-05-05T13:06:54.030Z,21.92
2023-05-05T13:09:27.121Z,21.91
2023-05-05T13:11:55.876Z,21.91
2023-05-05T13:14:24.214Z,21.96
2023-05-05T13:16:52.373Z,21.93
2023-05-05T13:19:23.579Z,21.99
2023-05-05T13:21:51.628Z,22.02
2023-05-05T13:24:28.567Z,22.03
2023-05-05T13:27:04.045Z,21.96
2023-05-05T13:29:33.008Z,21.98
2023-05-05T13:32:01.336Z,21.96
2023-05-05T13:34:30.783Z,22.01
2023-05-05T13:36:58.829Z,22.04
2023-05-05T13:39:27.007Z,22.01
2023-05-05T13:41:55.266Z,21.99
2023-05-05T13:44:23.288Z,21.95
2023-05-05T13:46:51.298Z,21.93
2023-05-05T13:49:19.933Z,21.89
2023-05-05T13:51:50.219Z,21.88
2023-05-05T13:54:18.268Z,21.84
2023-05-05T13:56:46.751Z,21.84
2023-05-05T13:59:14.782Z,21.85
2023-05-05T14:01:43.013Z,21.84
2023-05-05T14:04:11.072Z,21.82
2023-05-05T14:06:39.123Z,21.82
2023-05-05T14:09:08.657Z,21.81
2023-05-05T14:11:36.636Z,21.78
2023-05-05T14:14:06.118Z,21.76
2023-05-05T14:16:34.308Z,21.75
2023-05-05T14:19:02.516Z,21.69
2023-05-05T14:21:31.638Z,21.67
2023-05-05T14:23:59.724Z,21.67
2023-05-05T14:26:29.136Z,21.68
2023-05-05T14:28:57.172Z,21.64
2023-05-05T14:31:25.320Z,21.61
2023-05-05T14:33:53.351Z,21.62
2023-05-05T14:36:21.406Z,21.62
2023-05-05T14:38:49.425Z,21.62
2023-05-05T14:41:17.439Z,21.62
2023-05-05T14:43:46.810Z,21.53
2023-05-05T14:46:14.949Z,21.50
2023-05-05T14:48:43.400Z,21.44
2023-05-05T14:51:11.501Z,21.40
2023-05-05T14:53:39.493Z,21.32
2023-05-05T14:56:08.036Z,21.29
2023-05-05T14:58:35.994Z,21.28
2023-05-05T15:01:05.764Z,21.25
2023-05-05T15:03:33.911Z,21.23
2023-05-05T15:06:02.044Z,21.22
2023-05-05T15:08:30.031Z,21.20
2023-05-05T15:10:58.073Z,21.20
2023-05-05T15:13:26.131Z,21.20
2023-05-05T15:15:54.352Z,21.16
2023-05-05T15:18:23.830Z,21.14
2023-05-05T15:20:51.908Z,21.13
2023-05-05T15:23:20.039Z,21.09
2023-05-05T15:25:48.166Z,21.06
2023-05-05T15:28:17.229Z,21.03
2023-05-05T15:30:45.267Z,21.00
2023-05-05T15:33:13.283Z,20.93
2023-05-05T15:35:42.815Z,20.91
2023-05-05T15:38:10.887Z,20.87
2023-05-05T15:40:38.836Z,20.82
2023-05-05T15:43:06.839Z,20.77
2023-05-05T15:45:35.835Z,20.73
2023-05-05T15:48:03.865Z,20.67
2023-05-05T15:50:31.934Z,20.61
2023-05-05T15:53:01.777Z,20.61
2023-05-05T15:55:33.375Z,20.54
2023-05-05T15:58:01.450Z,20.49
2023-05-05T16:00:31.296Z,20.40
2023-05-05T16:02:59.500Z,20.32
2023-05-05T16:05:32.812Z,20.27
2023-05-05T16:08:02.258Z,20.24
2023-05-05T16:10:30.531Z,20.16
2023-05-05T16:12:58.610Z,20.08
2023-05-05T16:15:26.625Z,20.02
2023-05-05T16:17:54.738Z,19.91
2023-05-05T16:20:23.108Z,19.88
2023-05-05T16:22:51.584Z,19.86
2023-05-05T16:25:23.325Z,19.83
2023-05-05T16:27:51.951Z,19.73
2023-05-05T16:30:20.286Z,19.66
2023-05-05T16:32:51.153Z,19.55
2023-05-05T16:35:19.373Z,19.50
2023-05-05T16:37:47.492Z,19.44
2023-05-05T16:40:15.786Z,19.43
2023-05-05T16:42:45.197Z,19.39
2023-05-05T16:45:13.272Z,19.34
2023-05-05T16:47:42.039Z,19.29
2023-05-05T16:50:10.797Z,19.30
2023-05-05T16:52:38.834Z,19.28
2023-05-05T16:55:07.695Z,19.16
2023-05-05T16:57:35.948Z,19.16
2023-05-05T17:00:07.365Z,19.19
2023-05-05T17:02:36.188Z,19.18
2023-05-05T17:05:04.473Z,19.22
2023-05-05T17:07:32.623Z,19.24
2023-05-05T17:10:00.639Z,19.25
2023-05-05T17:12:28.716Z,19.19
2023-05-05T17:14:56.676Z,19.19
2023-05-05T17:17:26.189Z,19.15
2023-05-05T17:19:54.332Z,19.12
2023-05-05T17:22:22.277Z,19.14
2023-05-05T17:24:51.211Z,19.13
2023-05-05T17:27:19.272Z,19.08
2023-05-05T17:29:47.281Z,19.05
2023-05-05T17:32:15.266Z,19.07
2023-05-05T17:34:44.631Z,19.05
2023-05-05T17:37:12.627Z,19.05
2023-05-05T17:39:40.674Z,19.01
2023-05-05T17:42:09.234Z,19.01
2023-05-05T17:44:37.225Z,18.99
2023-05-05T17:47:07.685Z,18.97
2023-05-05T17:49:35.744Z,18.98
2023-05-05T17:52:05.574Z,18.97
2023-05-05T17:54:33.588Z,18.99
2023-05-05T17:57:02.342Z,18.98
2023-05-05T17:59:31.949Z,18.91
2023-05-05T18:02:00.020Z,18.91
2023-05-05T18:04:28.251Z,18.89
2023-05-05T18:06:56.582Z,18.90
2023-05-05T18:09:25.908Z,18.94
2023-05-05T18:11:54.859Z,18.85
2023-05-05T18:14:25.072Z,18.82
2023-05-05T18:16:54.168Z,18.79
2023-05-05T18:19:24.475Z,18.78
2023-05-05T18:21:54.612Z,18.76
2023-05-05T18:24:22.673Z,18.76
2023-05-05T18:26:53.351Z,18.72
2023-05-05T18:29:22.921Z,18.72
2023-05-05T18:31:54.513Z,18.66
2023-05-05T18:34:22.864Z,18.60
2023-05-05T18:36:54.119Z,18.62
2023-05-05T18:39:22.162Z,18.66
2023-05-05T18:41:50.262Z,18.61
2023-05-05T18:44:20.083Z,18.58
2023-05-05T18:46:49.377Z,18.61
2023-05-05T18:49:17.462Z,18.57
2023-05-05T18:51:45.560Z,18.57
2023-05-05T18:54:14.258Z,18.57
2023-05-05T18:56:42.502Z,18.55
2023-05-05T18:59:11.337Z,18.53
2023-05-05T19:01:43.026Z,18.52
2023-05-05T19:04:26.559Z,18.51
2023-05-05T19:06:58.464Z,18.56
2023-05-05T19:09:26.548Z,18.51
2023-05-05T19:11:54.667Z,18.52
2023-05-05T19:14:23.689Z,18.46
2023-05-05T19:16:55.767Z,18.46
2023-05-05T19:19:24.036Z,18.46
2023-05-05T19:21:52.454Z,18.36
2023-05-05T19:24:20.544Z,18.35
2023-05-05T19:26:48.605Z,18.37
2023-05-05T19:29:17.248Z,18.39
2023-05-05T19:31:45.448Z,18.33
2023-05-05T19:34:15.003Z,18.30
2023-05-05T19:36:43.245Z,18.28
2023-05-05T19:39:12.606Z,18.27
2023-05-05T19:41:41.943Z,18.25
2023-05-05T19:44:10.503Z,18.25
2023-05-05T19:46:38.883Z,18.20
2023-05-05T19:49:07.303Z,18.20
2023-05-05T19:51:36.691Z,18.20
2023-05-05T19:54:05.998Z,18.16
2023-05-05T19:56:34.011Z,18.20
2023-05-05T19:59:05.379Z,18.17
2023-05-05T20:01:34.036Z,18.20
2023-05-05T20:04:03.272Z,18.15
2023-05-05T20:06:31.930Z,18.19
2023-05-05T20:09:01.905Z,18.14
2023-05-05T20:11:30.058Z,18.13
2023-05-05T20:13:58.853Z,18.15
2023-05-05T20:16:26.929Z,18.15
2023-05-05T20:18:55.359Z,18.17
2023-05-05T20:21:23.464Z,18.15
2023-05-05T20:23:51.866Z,18.15
2023-05-05T20:26:21.345Z,18.12
2023-05-05T20:28:49.513Z,18.13
2023-05-05T20:31:17.605Z,18.11
2023-05-05T20:33:46.023Z,18.12
2023-05-05T20:36:14.013Z,18.11
2023-05-05T20:38:42.490Z,18.10
2023-05-05T20:41:11.360Z,18.09
2023-05-05T20:43:40.707Z,18.05
2023-05-05T20:46:12.921Z,18.03
2023-05-05T20:48:43.081Z,18.03
2023-05-05T20:51:11.450Z,18.07
2023-05-05T20:53:39.549Z,18.05
2023-05-05T20:56:08.970Z,18.02
2023-05-05T20:58:43.899Z,17.99
2023-05-05T21:01:12.570Z,18.00
2023-05-05T21:03:40.577Z,17.99
2023-05-05T21:06:08.608Z,18.03
2023-05-05T21:08:36.616Z,17.99
2023-05-05T21:11:09.148Z,17.96
2023-05-05T21:13:37.310Z,17.94
2023-05-05T21:16:07.363Z,17.94
2023-05-05T21:18:35.612Z,17.94
2023-05-05T21:21:03.627Z,17.95
2023-05-05T21:23:32.016Z,17.92
2023-05-05T21:26:00.710Z,17.96
2023-05-05T21:28:28.704Z,17.92
2023-05-05T21:31:19.537Z,17.94
2023-05-05T21:33:46.673Z,17.89
2023-05-05T21:36:17.501Z,17.95
2023-05-05T21:38:45.666Z,17.90
2023-05-05T21:41:13.734Z,17.93
2023-05-05T21:43:41.768Z,17.87
2023-05-05T21:46:10.244Z,17.85
2023-05-05T21:48:41.273Z,17.86
2023-05-05T21:51:10.596Z,17.88
2023-05-05T21:53:38.796Z,17.88
2023-05-05T21:56:08.633Z,17.88
2023-05-05T21:58:36.766Z,17.84
2023-05-05T22:01:29.476Z,17.86
2023-05-05T22:03:57.878Z,17.82
2023-05-05T22:06:27.678Z,17.84
2023-05-05T22:08:56.669Z,17.76
2023-05-05T22:11:24.893Z,17.77
2023-05-05T22:13:52.952Z,17.75
2023-05-05T22:16:20.986Z,17.75
2023-05-05T22:18:48.981Z,17.74
2023-05-05T22:21:17.174Z,17.74
2023-05-05T22:23:47.032Z,17.70
2023-05-05T22:26:43.034Z,17.73
2023-05-05T22:29:11.730Z,17.72
2023-05-05T22:31:39.940Z,17.68
2023-05-05T22:34:08.401Z,17.68
2023-05-05T22:36:36.410Z,17.67
2023-05-05T22:39:05.788Z,17.68
2023-05-05T22:41:33.809Z,17.72
2023-05-05T22:44:01.972Z,17.72
2023-05-05T22:46:30.124Z,17.72
2023-05-05T22:48:58.150Z,17.68
2023-05-05T22:51:26.199Z,17.68
2023-05-05T22:53:54.243Z,17.70
2023-05-05T22:56:23.592Z,17.69
2023-05-05T22:58:51.606Z,17.72
2023-05-05T23:01:19.633Z,17.68
2023-05-05T23:03:47.747Z,17.67
2023-05-05T23:06:15.781Z,17.68
2023-05-05T23:08:44.543Z,17.68
2023-05-05T23:11:12.546Z,17.64
2023-05-05T23:13:41.992Z,17.63
2023-05-05T23:16:10.295Z,17.60
2023-05-05T23:18:38.700Z,17.61
2023-05-05T23:21:07.002Z,17.55
2023-05-05T23:23:35.088Z,17.52
2023-05-05T23:26:03.286Z,17.54
2023-05-05T23:28:31.347Z,17.56
2023-05-05T23:31:00.735Z,17.54
2023-05-05T23:33:28.812Z,17.52
2023-05-05T23:35:56.818Z,17.51
2023-05-05T23:38:26.377Z,17.54
2023-05-05T23:40:54.533Z,17.51
2023-05-05T23:43:22.483Z,17.48
2023-05-05T23:45:50.657Z,17.48
2023-05-05T23:48:20.079Z,17.48
2023-05-05T23:50:48.099Z,17.44
2023-05-05T23:53:16.741Z,17.43
2023-05-05T23:55:44.749Z,17.39
2023-05-05T23:58:12.774Z,17.34
